Aeroporto :
LOGIN :

Iscrizione | Disclaimer

   EN    FR    IT 

 










Sommario :    VFR   VFR Marginale   IFR   IFR Intensivo   IFR Molto Intensivo
Visibilità : 
Base nubi : 
>= 8 km
>= 3000ft
5 / 8 km
1000 / 3000 ft
1500m / 5 km
500 / 1000 ft
800 / 1500m
200 / 500 ft
< 800m
< 200 ft
Simboli :   Temporali  Nebbia  Neve Forte  Precipitazioni Forti  Vento > 20 kt
SIGMETs :   Varie  Temporali  Ghiacco  Turbolenza  Onda orograficha  Ceneri Vulcaniche






- Altitudine del aeroporto : 527 ft
- Codice IATA : DBV


LDDU - Dubrovnik

ULTIMO METAR :
  • 250530Z 05005KT 340V080 CAVOK 09/M02 Q1022 NOSIG

METARs OBSOLETI :
  • 250500Z 06006KT 010V080 CAVOK 10/M03 Q1022 NOSIG
  • 250430Z 03008KT 350V070 CAVOK 12/M04 Q1022 NOSIG
  • 250400Z 04006KT 350V100 CAVOK 12/M03 Q1022 NOSIG
  • 250330Z 05005KT 350V140 CAVOK 12/M04 Q1022 NOSIG
  • 250300Z 02007KT 280V080 CAVOK 11/M04 Q1022 NOSIG

TAF TAF LDDU
Valido dal 25 a 06 ore il 26 a 06 ore UTC


250525Z 2506/2606 VRB02KT CAVOK TX16/2512Z TN08/2604Z
BECMG 2510/2512 29008KT
BECMG 2516/2518 02010KT



MetMap, La meteo Aeronautica in un colpo d'occhio ! - Copyright ORBIFLY Dicembre 2007 - Disclaimer

ORBIFLY MET'MAP TEAM :

Programmazione e sviluppo : Alexandra Zaïnal
Concezione : Baudouin d'Aumeries
Aiuto per la programmazione : Marc-Olivier Méhu
Supporto tecnico e logistico : Manuel Goepfert
Aiuto per la traduzione : Arnaldo La Scala

Contatto : metmap@orbifly.com




FONTI E CREDITI :

   NOAA